Time;durP1;ratioP1;P1;durP2;ratioP2;P2;SDS_P1;SDS_P2;PMS_P1;PMS_P2;Temp;Humidity;BMP_temperature;BMP_pressure;BME280_temperature;BME280_humidity;BME280_pressure;Samples;Min_cycle;Max_cycle;Signal;HPM_P1;HPM_P2
2022/05/06 00:01:46;;;;;;;1999.90;999.90;;;12.20;99.90;;;;;;5034608;28;20209;-73
2022/05/06 00:04:14;;;;;;;1999.90;999.90;;;12.20;99.90;;;;;;5016466;28;20531;-73
2022/05/06 00:06:39;;;;;;;1999.90;999.90;;;12.30;99.90;;;;;;5034133;28;20250;-72
2022/05/06 00:09:05;;;;;;;1999.90;999.90;;;12.30;99.90;;;;;;5032653;28;20264;-73
2022/05/06 00:11:31;;;;;;;1999.90;999.90;;;12.20;99.90;;;;;;5066018;28;20187;-73
2022/05/06 00:13:57;;;;;;;1999.90;999.90;;;12.30;99.90;;;;;;5021040;28;20255;-72
2022/05/06 00:16:24;;;;;;;1999.90;999.90;;;12.20;99.90;;;;;;5031258;28;20182;-73
2022/05/06 00:18:51;;;;;;;1999.90;999.90;;;12.30;99.90;;;;;;5033900;28;20213;-72
2022/05/06 00:21:17;;;;;;;1999.90;999.90;;;12.40;99.90;;;;;;5033789;28;20586;-73
2022/05/06 00:23:42;;;;;;;1999.90;999.90;;;12.30;99.90;;;;;;5033624;28;20196;-72
2022/05/06 00:26:09;;;;;;;1999.90;999.90;;;12.10;99.90;;;;;;5047956;28;20580;-73
2022/05/06 00:28:35;;;;;;;1999.90;999.90;;;12.10;99.90;;;;;;5016734;28;20206;-73
2022/05/06 00:31:01;;;;;;;1999.90;999.90;;;12.10;99.90;;;;;;5015708;28;20233;-73
2022/05/06 00:33:27;;;;;;;1999.90;999.90;;;12.20;99.90;;;;;;5016531;28;20187;-73
2022/05/06 00:35:54;;;;;;;1999.90;999.90;;;12.20;99.90;;;;;;5016228;28;20248;-73
2022/05/06 00:38:20;;;;;;;1999.90;999.90;;;12.10;99.90;;;;;;5038770;28;20194;-73
2022/05/06 00:40:46;;;;;;;1999.90;999.90;;;12.00;99.90;;;;;;5039967;28;20198;-74
2022/05/06 00:43:12;;;;;;;1999.90;999.90;;;12.00;99.90;;;;;;5039146;28;20186;-73
2022/05/06 00:45:57;;;;;;;1999.90;999.90;;;12.00;99.90;;;;;;5024754;28;20214;-73
2022/05/06 00:48:27;;;;;;;1999.90;999.90;;;12.00;99.90;;;;;;5043441;28;20182;-73
2022/05/06 00:50:56;;;;;;;1999.90;999.90;;;12.00;99.90;;;;;;5031888;28;20186;-73
2022/05/06 00:53:22;;;;;;;1999.90;999.90;;;12.00;99.90;;;;;;5038667;28;20274;-74
2022/05/06 00:55:49;;;;;;;1999.90;999.90;;;12.10;99.90;;;;;;5050668;28;20721;-73
2022/05/06 00:58:15;;;;;;;1999.90;999.90;;;12.10;99.90;;;;;;5039638;28;20178;-73
2022/05/06 01:00:41;;;;;;;1999.90;999.90;;;12.00;99.90;;;;;;5042363;28;20203;-73
2022/05/06 01:03:07;;;;;;;1999.90;999.90;;;12.00;99.90;;;;;;5042700;28;20197;-73
2022/05/06 01:05:32;;;;;;;1999.90;999.90;;;12.00;99.90;;;;;;5034455;28;20583;-73
2022/05/06 01:07:58;;;;;;;1999.90;999.90;;;12.10;99.90;;;;;;5047950;28;20274;-73
2022/05/06 01:10:24;;;;;;;1999.90;999.90;;;12.10;99.90;;;;;;5065108;28;20209;-73
2022/05/06 01:12:51;;;;;;;1999.90;999.90;;;12.00;99.90;;;;;;5031624;28;20189;-76
2022/05/06 01:15:20;;;;;;;1999.90;999.90;;;12.10;99.90;;;;;;5048666;28;20259;-72
2022/05/06 01:17:50;;;;;;;1999.90;999.90;;;12.10;99.90;;;;;;5032686;28;20186;-74
2022/05/06 01:20:17;;;;;;;1999.90;999.90;;;12.10;99.90;;;;;;5065627;28;20265;-73
2022/05/06 01:22:49;;;;;;;1999.90;999.90;;;12.10;99.90;;;;;;5031655;28;20179;-73
2022/05/06 01:25:15;;;;;;;1999.90;999.90;;;12.00;99.90;;;;;;5047881;28;20582;-73
2022/05/06 01:27:57;;;;;;;1999.90;999.90;;;12.00;99.90;;;;;;5037449;28;20194;-73
2022/05/06 01:30:38;;;;;;;1999.90;999.90;;;12.00;99.90;;;;;;5032808;28;20187;-73
2022/05/06 01:33:09;;;;;;;1999.90;999.90;;;11.90;99.90;;;;;;5046362;28;20181;-73
2022/05/06 01:35:42;;;;;;;1999.90;999.90;;;12.00;99.90;;;;;;5039399;28;20193;-75
2022/05/06 01:38:10;;;;;;;1999.90;999.90;;;11.90;99.90;;;;;;5032839;28;20229;-73
2022/05/06 01:40:46;;;;;;;1690.40;835.15;;;11.90;99.90;;;;;;5039927;28;20556;-73
2022/05/06 01:43:15;;;;;;;1658.30;820.88;;;12.00;99.90;;;;;;5050983;28;20208;-73
2022/05/06 01:45:43;;;;;;;1697.43;839.10;;;11.90;99.90;;;;;;5042628;28;20289;-73
2022/05/06 01:48:09;;;;;;;1724.85;852.20;;;11.80;99.90;;;;;;5035992;28;20191;-73
2022/05/06 01:50:39;;;;;;;992.78;445.13;;;11.80;99.90;;;;;;5056424;28;20193;-73
2022/05/06 01:53:07;;;;;;;1730.82;853.78;;;11.80;99.90;;;;;;5041844;28;20214;-73
2022/05/06 01:55:33;;;;;;;1199.45;547.95;;;11.70;99.90;;;;;;5028533;28;20186;-73
2022/05/06 01:57:59;;;;;;;1734.50;854.42;;;11.90;99.90;;;;;;5041298;28;20610;-73
2022/05/06 02:00:25;;;;;;;936.88;423.48;;;11.80;99.90;;;;;;5035243;28;20207;-73
2022/05/06 02:02:51;;;;;;;1212.13;553.47;;;11.90;99.90;;;;;;5035920;28;20197;-73
2022/05/06 02:05:17;;;;;;;1130.50;509.25;;;11.90;99.90;;;;;;5036170;28;20260;-72
2022/05/06 02:07:51;;;;;;;1215.22;547.10;;;11.90;99.90;;;;;;5068121;28;20193;-73
2022/05/06 02:10:17;;;;;;;1201.72;544.72;;;11.90;99.90;;;;;;5035126;28;20218;-73
2022/05/06 02:12:45;;;;;;;1598.70;726.65;;;11.80;99.90;;;;;;5051573;28;20660;-74
2022/05/06 02:15:11;;;;;;;1643.38;745.60;;;11.80;99.90;;;;;;5051528;28;20197;-73
2022/05/06 02:17:40;;;;;;;1633.17;741.33;;;11.80;99.90;;;;;;5039838;28;20780;-73
2022/05/06 02:20:08;;;;;;;1739.20;787.60;;;11.70;99.90;;;;;;5045123;28;20606;-73
2022/05/06 02:22:35;;;;;;;1787.68;813.83;;;11.70;99.90;;;;;;5034681;28;20215;-73
2022/05/06 02:25:00;;;;;;;1925.07;878.65;;;11.80;99.90;;;;;;5054897;28;20842;-73
2022/05/06 02:27:26;;;;;;;1916.97;875.40;;;11.70;99.90;;;;;;5034511;28;20229;-73
2022/05/06 02:35:28;;;;;;;1999.90;999.90;;;11.80;99.90;;;;;;5034686;28;20179;-73
2022/05/06 02:37:54;;;;;;;1999.90;959.50;;;11.80;99.90;;;;;;5051042;28;20182;-73
2022/05/06 02:40:20;;;;;;;1999.90;999.90;;;11.70;99.90;;;;;;5067470;28;20205;-73
2022/05/06 02:42:45;;;;;;;1999.90;999.90;;;11.70;99.90;;;;;;5050693;28;20655;-73
2022/05/06 02:45:11;;;;;;;1999.90;999.90;;;11.60;99.90;;;;;;5034278;28;20569;-72
2022/05/06 02:47:37;;;;;;;1999.90;999.90;;;11.60;99.90;;;;;;5033909;28;20186;-73
2022/05/06 02:50:04;;;;;;;1999.90;999.90;;;11.60;99.90;;;;;;5050954;28;20190;-73
2022/05/06 02:52:29;;;;;;;1999.90;999.90;;;11.40;99.90;;;;;;5042581;28;20241;-73
2022/05/06 02:54:55;;;;;;;1999.90;999.90;;;11.40;99.90;;;;;;5034123;28;20198;-74
2022/05/06 02:57:20;;;;;;;1999.90;999.90;;;11.50;99.90;;;;;;5035850;28;20187;-73
2022/05/06 02:59:46;;;;;;;1999.90;999.90;;;11.60;99.90;;;;;;5050262;28;20204;-73
2022/05/06 03:02:12;;;;;;;1999.90;999.90;;;11.60;99.90;;;;;;5034068;28;20170;-73
2022/05/06 03:04:38;;;;;;;1999.90;999.90;;;11.60;99.90;;;;;;5034663;28;20203;-73
2022/05/06 03:07:06;;;;;;;1999.90;999.90;;;11.60;99.90;;;;;;5055166;28;20311;-73
2022/05/06 03:09:33;;;;;;;1999.90;999.90;;;11.50;99.90;;;;;;5031573;28;20190;-73
2022/05/06 03:11:59;;;;;;;1999.90;999.90;;;11.50;99.90;;;;;;5035279;28;20570;-73
2022/05/06 03:14:25;;;;;;;1999.90;999.90;;;11.30;99.90;;;;;;5033902;28;20252;-73
2022/05/06 03:16:51;;;;;;;1999.90;999.90;;;11.30;99.90;;;;;;5050428;28;20637;-73
2022/05/06 03:19:17;;;;;;;1999.90;999.90;;;11.30;99.90;;;;;;5017298;28;20221;-72
2022/05/06 03:21:50;;;;;;;1999.90;999.90;;;11.30;99.90;;;;;;5047741;28;20223;-73
2022/05/06 03:24:16;;;;;;;1999.90;999.90;;;11.40;99.90;;;;;;5048127;28;20178;-73
2022/05/06 03:26:42;;;;;;;1999.90;999.90;;;11.30;99.90;;;;;;5017320;28;20695;-73
2022/05/06 03:29:07;;;;;;;1999.90;999.90;;;11.30;99.90;;;;;;5034419;28;20194;-74
2022/05/06 03:31:33;;;;;;;1999.90;999.90;;;11.30;99.90;;;;;;5050383;28;20199;-73
2022/05/06 03:34:01;;;;;;;1999.90;999.90;;;11.40;99.90;;;;;;5069281;28;20178;-74
2022/05/06 03:36:27;;;;;;;1999.90;999.90;;;11.30;99.90;;;;;;5068874;28;20647;-73
2022/05/06 03:38:52;;;;;;;1999.90;999.90;;;11.30;99.90;;;;;;5042393;28;20193;-73
2022/05/06 03:41:18;;;;;;;1999.90;999.90;;;11.40;99.90;;;;;;5034436;28;20191;-73
2022/05/06 03:43:44;;;;;;;1999.90;999.90;;;11.40;99.90;;;;;;5036236;28;20183;-73
2022/05/06 03:46:09;;;;;;;1999.90;999.90;;;11.50;99.90;;;;;;5044993;28;20584;-73
2022/05/06 03:48:35;;;;;;;1999.90;999.90;;;11.60;99.90;;;;;;5036063;28;20202;-73
2022/05/06 03:53:46;;;;;;;1999.90;999.90;;;11.40;99.90;;;;;;5034353;28;20239;-73
2022/05/06 03:56:12;;;;;;;1999.90;999.90;;;11.40;99.90;;;;;;5032889;28;20191;-73
2022/05/06 03:58:37;;;;;;;1999.90;999.90;;;11.40;99.90;;;;;;5032821;28;20183;-75
2022/05/06 04:01:04;;;;;;;1999.90;999.90;;;11.40;99.90;;;;;;5032057;28;20202;-73
2022/05/06 04:03:31;;;;;;;1999.90;999.90;;;11.40;99.90;;;;;;5032655;28;20194;-73
2022/05/06 04:05:57;;;;;;;1999.90;999.90;;;11.50;99.90;;;;;;5049698;28;20372;-73
2022/05/06 04:08:23;;;;;;;1999.90;999.90;;;11.50;99.90;;;;;;5032686;28;20225;-73
2022/05/06 04:10:49;;;;;;;1973.57;999.90;;;11.40;99.90;;;;;;5066203;28;20224;-73
2022/05/06 04:13:18;;;;;;;1957.90;999.90;;;11.30;99.90;;;;;;5020172;28;20193;-73
2022/05/06 04:15:48;;;;;;;1939.57;999.90;;;11.40;99.90;;;;;;5033757;28;20709;-73
2022/05/06 04:18:14;;;;;;;1950.37;999.90;;;11.50;99.90;;;;;;5016725;28;20183;-74
2022/05/06 04:23:30;;;;;;;1913.20;999.90;;;11.50;99.90;;;;;;5047692;28;20202;-73
2022/05/06 04:26:05;;;;;;;1803.18;999.90;;;11.40;99.90;;;;;;5032324;28;20717;-73
2022/05/06 04:28:31;;;;;;;1760.23;999.90;;;11.40;99.90;;;;;;5045634;28;20220;-73
2022/05/06 04:30:57;;;;;;;1740.33;999.90;;;11.50;99.90;;;;;;5033248;28;20187;-74
2022/05/06 04:33:26;;;;;;;1642.50;999.90;;;11.40;99.90;;;;;;5066463;28;20194;-73
2022/05/06 04:35:53;;;;;;;1644.03;999.90;;;11.40;99.90;;;;;;5050765;28;20549;-74
2022/05/06 04:38:20;;;;;;;1649.82;999.90;;;11.60;99.90;;;;;;5032297;28;20544;-73
2022/05/06 04:40:46;;;;;;;1535.25;999.90;;;11.60;99.90;;;;;;5034026;28;20190;-73
2022/05/06 04:43:12;;;;;;;1436.33;999.90;;;11.50;99.90;;;;;;5046621;28;20668;-73
2022/05/06 04:45:42;;;;;;;1468.45;999.90;;;11.60;99.90;;;;;;5032221;28;20209;-73
2022/05/06 04:48:10;;;;;;;1553.88;999.90;;;11.70;99.90;;;;;;5052969;28;20189;-73
2022/05/06 04:50:37;;;;;;;1467.07;999.90;;;11.60;99.90;;;;;;5035556;28;20210;-74
2022/05/06 04:53:05;;;;;;;1425.18;999.90;;;11.60;99.90;;;;;;5016038;28;20294;-73
2022/05/06 04:55:30;;;;;;;1376.70;999.90;;;11.50;99.90;;;;;;5031931;28;20333;-73
2022/05/06 04:57:56;;;;;;;1403.60;999.90;;;11.60;99.90;;;;;;5032084;28;20265;-74
2022/05/06 05:00:22;;;;;;;1361.97;999.90;;;11.60;99.90;;;;;;5032562;28;20198;-73
2022/05/06 05:02:48;;;;;;;1353.13;999.90;;;11.80;99.90;;;;;;5051729;28;20186;-73
2022/05/06 05:05:14;;;;;;;1355.72;999.90;;;11.80;99.90;;;;;;5034356;28;20215;-73
2022/05/06 05:07:40;;;;;;;1331.75;999.90;;;11.80;99.90;;;;;;5038197;28;20297;-73
2022/05/06 05:10:08;;;;;;;1325.75;999.90;;;11.60;99.90;;;;;;5033432;28;20651;-74
2022/05/06 05:12:35;;;;;;;1327.93;999.90;;;11.60;99.90;;;;;;5072291;28;20220;-73
2022/05/06 05:15:01;;;;;;;1276.03;999.90;;;11.70;99.90;;;;;;5045687;28;20187;-74
2022/05/06 05:17:27;;;;;;;1309.00;999.90;;;11.80;99.90;;;;;;5036275;28;20269;-73
2022/05/06 05:19:52;;;;;;;1285.97;999.90;;;11.70;99.90;;;;;;5040757;28;20276;-74
2022/05/06 05:22:19;;;;;;;1292.80;999.90;;;11.80;99.90;;;;;;5019866;28;20628;-73
2022/05/06 05:24:45;;;;;;;1277.40;999.90;;;11.90;99.90;;;;;;5019623;28;20205;-73
2022/05/06 05:27:11;;;;;;;1281.88;999.90;;;11.80;99.90;;;;;;5036829;28;20197;-73
2022/05/06 05:29:37;;;;;;;1243.90;999.90;;;11.80;99.90;;;;;;5079468;28;20195;-73
2022/05/06 05:32:03;;;;;;;1250.03;999.90;;;11.90;99.90;;;;;;5037091;28;20195;-73
2022/05/06 05:34:29;;;;;;;1228.85;999.90;;;11.90;99.90;;;;;;5036294;28;20183;-74
2022/05/06 05:36:54;;;;;;;1210.15;999.90;;;11.80;99.90;;;;;;5042281;28;20681;-73
2022/05/06 05:39:20;;;;;;;1200.22;999.90;;;11.90;99.90;;;;;;5039954;28;20183;-74
2022/05/06 05:41:46;;;;;;;1167.63;999.90;;;11.90;99.90;;;;;;5035259;28;20191;-73
2022/05/06 05:49:40;;;;;;;1172.53;999.90;;;12.20;99.90;;;;;;5054032;28;20197;-73
2022/05/06 05:52:06;;;;;;;1128.97;998.58;;;12.10;99.90;;;;;;5051883;28;20178;-74
2022/05/06 05:54:31;;;;;;;1110.40;992.97;;;12.30;99.90;;;;;;5035258;28;20240;-74
2022/05/06 05:56:57;;;;;;;1140.20;999.90;;;12.10;99.90;;;;;;5036390;28;20183;-74
2022/05/06 05:59:23;;;;;;;1107.47;992.92;;;12.10;99.90;;;;;;5035227;28;20187;-74
2022/05/06 06:01:49;;;;;;;1168.65;999.90;;;12.00;99.90;;;;;;5036543;28;20183;-73
2022/05/06 06:04:18;;;;;;;1209.82;999.90;;;12.10;99.90;;;;;;5034973;28;20183;-78
2022/05/06 06:06:43;;;;;;;1242.88;999.90;;;12.20;99.90;;;;;;5032971;28;20210;-74
2022/05/06 06:09:09;;;;;;;1229.97;999.90;;;12.30;99.90;;;;;;5036696;28;20182;-74
2022/05/06 06:11:35;;;;;;;1188.10;999.90;;;12.20;99.90;;;;;;5052207;28;20987;-74
2022/05/06 06:14:02;;;;;;;1224.07;999.90;;;12.20;99.90;;;;;;5034694;28;20264;-70
2022/05/06 06:16:29;;;;;;;1236.45;999.90;;;12.30;99.90;;;;;;5036160;28;20183;-70
2022/05/06 06:18:58;;;;;;;1242.57;999.90;;;12.40;99.90;;;;;;5049958;28;20206;-70
2022/05/06 06:21:27;;;;;;;1237.13;999.90;;;12.40;99.90;;;;;;5053992;28;20186;-74
2022/05/06 06:23:53;;;;;;;1241.85;999.90;;;12.40;99.90;;;;;;5042320;28;20186;-80
2022/05/06 06:26:19;;;;;;;1218.05;999.90;;;12.40;99.90;;;;;;5032850;28;20241;-76
2022/05/06 06:28:44;;;;;;;1253.90;999.90;;;12.50;99.90;;;;;;5033941;28;20222;-79
2022/05/06 06:31:10;;;;;;;1237.10;999.90;;;12.90;99.90;;;;;;5035276;28;20655;-81
2022/05/06 06:33:38;;;;;;;1266.40;999.90;;;12.90;99.90;;;;;;5036783;28;20613;-80
2022/05/06 06:36:08;;;;;;;1270.10;999.90;;;13.10;99.90;;;;;;5075544;28;20631;-80
2022/05/06 06:38:34;;;;;;;1313.88;999.90;;;13.00;99.90;;;;;;5066976;28;20194;-78
2022/05/06 06:41:00;;;;;;;1338.43;999.90;;;12.90;99.90;;;;;;5035494;28;20197;-83
2022/05/06 06:43:26;;;;;;;1341.38;999.90;;;13.00;99.90;;;;;;5047622;28;20182;-82
2022/05/06 06:45:52;;;;;;;1352.63;999.90;;;13.00;99.90;;;;;;5042180;28;20214;-77
2022/05/06 06:48:18;;;;;;;1371.50;999.90;;;13.00;99.90;;;;;;5043114;28;20272;-79
2022/05/06 06:50:44;;;;;;;1362.40;999.90;;;13.10;99.90;;;;;;5034156;28;20258;-81
2022/05/06 06:53:10;;;;;;;1395.35;999.90;;;13.30;99.90;;;;;;5034727;28;20192;-79
2022/05/06 06:55:36;;;;;;;1487.82;999.90;;;13.40;99.90;;;;;;5017916;28;20277;-78
2022/05/06 06:58:02;;;;;;;1461.30;999.90;;;13.50;99.90;;;;;;5050325;28;20190;-78
2022/05/06 07:00:27;;;;;;;1555.03;999.90;;;13.50;99.90;;;;;;5042191;28;20585;-82
2022/05/06 07:02:55;;;;;;;1555.72;999.90;;;13.60;99.90;;;;;;5035959;28;20182;-78
2022/05/06 07:05:22;;;;;;;1587.40;999.90;;;13.70;99.90;;;;;;5052544;28;20198;-83
2022/05/06 07:13:17;;;;;;;1766.88;999.90;;;13.40;99.90;;;;;;5035339;28;20585;-78
2022/05/06 07:15:43;;;;;;;1772.40;999.90;;;13.60;99.90;;;;;;5033969;28;20190;-79
2022/05/06 07:18:09;;;;;;;1668.45;999.90;;;13.60;99.90;;;;;;5035322;28;20188;-79
2022/05/06 07:20:35;;;;;;;1607.47;999.90;;;13.40;99.90;;;;;;5033560;28;20591;-74
2022/05/06 07:23:01;;;;;;;1620.75;999.90;;;13.50;99.90;;;;;;5033812;28;20298;-73
2022/05/06 07:25:26;;;;;;;1626.50;999.90;;;13.50;99.90;;;;;;5034872;28;20215;-72
2022/05/06 07:27:52;;;;;;;1603.80;999.90;;;13.70;99.90;;;;;;5039458;28;20687;-74
2022/05/06 07:30:18;;;;;;;1549.57;999.90;;;13.20;99.90;;;;;;5027481;28;20272;-78
2022/05/06 07:32:43;;;;;;;1530.85;999.90;;;13.20;99.90;;;;;;5041073;28;20197;-80
2022/05/06 07:35:09;;;;;;;1542.32;999.90;;;13.20;99.90;;;;;;5035890;28;20240;-74
2022/05/06 07:37:35;;;;;;;1564.78;999.90;;;13.60;99.90;;;;;;5049924;28;20197;-73
2022/05/06 07:40:04;;;;;;;1529.97;999.90;;;13.70;99.90;;;;;;5043814;28;20187;-73
2022/05/06 07:42:33;;;;;;;1479.70;999.90;;;13.70;99.90;;;;;;5033890;28;20186;-74
2022/05/06 07:44:59;;;;;;;1537.05;999.90;;;13.60;99.90;;;;;;5048977;28;20648;-75
2022/05/06 07:47:25;;;;;;;1492.93;999.90;;;13.50;99.90;;;;;;5066896;28;20210;-72
2022/05/06 07:49:51;;;;;;;1468.70;999.90;;;13.50;99.90;;;;;;5032962;28;20269;-74
2022/05/06 07:52:16;;;;;;;1563.80;999.90;;;13.50;99.90;;;;;;5049758;28;20210;-73
2022/05/06 07:54:43;;;;;;;1668.35;999.90;;;13.70;99.90;;;;;;5035476;28;20214;-72
2022/05/06 07:57:08;;;;;;;1696.20;999.90;;;13.80;99.90;;;;;;5036991;28;20195;-73
2022/05/06 07:59:34;;;;;;;1778.03;999.90;;;14.10;99.90;;;;;;5062081;28;20201;-73
2022/05/06 08:04:48;;;;;;;1949.20;999.90;;;14.10;99.90;;;;;;5040100;28;20201;-75
2022/05/06 08:07:15;;;;;;;1997.07;999.90;;;14.30;99.90;;;;;;5033679;28;20359;-75
2022/05/06 08:09:41;;;;;;;1995.75;999.90;;;14.50;99.90;;;;;;5066030;28;20526;-73
2022/05/06 08:12:08;;;;;;;1999.90;999.90;;;14.70;99.90;;;;;;5033519;28;20229;-73
2022/05/06 08:14:33;;;;;;;1999.90;999.90;;;14.90;99.90;;;;;;5032470;28;20190;-73
2022/05/06 08:16:59;;;;;;;1999.90;999.90;;;14.90;99.90;;;;;;5055440;28;20289;-73
2022/05/06 08:19:26;;;;;;;1999.90;999.90;;;15.20;99.90;;;;;;5050610;28;20820;-74
2022/05/06 08:21:52;;;;;;;1999.90;999.90;;;15.50;99.90;;;;;;5037357;28;20189;-69
2022/05/06 08:24:19;;;;;;;1999.90;999.90;;;15.30;99.90;;;;;;5033483;28;20187;-71
2022/05/06 08:26:46;;;;;;;1999.90;999.90;;;15.30;99.90;;;;;;5069608;28;20267;-71
2022/05/06 08:29:11;;;;;;;1999.90;999.90;;;15.20;99.90;;;;;;5050669;28;20200;-73
2022/05/06 08:31:37;;;;;;;1999.90;999.90;;;15.30;99.90;;;;;;5048498;28;20187;-69
2022/05/06 08:34:08;;;;;;;1999.90;999.90;;;15.30;99.90;;;;;;5032840;28;20190;-77
2022/05/06 08:36:35;;;;;;;1999.90;999.90;;;15.10;99.90;;;;;;5052072;28;20205;-72
2022/05/06 08:39:03;;;;;;;1999.90;999.90;;;15.40;99.90;;;;;;5035160;28;20193;-76
2022/05/06 08:41:29;;;;;;;1999.90;999.90;;;15.70;99.90;;;;;;5041022;28;20189;-74
2022/05/06 08:43:55;;;;;;;1999.90;999.90;;;15.50;99.90;;;;;;5048663;28;20651;-71
2022/05/06 08:51:53;;;;;;;1999.90;999.90;;;15.80;99.90;;;;;;5032146;28;20202;-74
2022/05/06 08:54:21;;;;;;;1999.90;999.90;;;15.90;99.90;;;;;;5065346;28;20228;-75
2022/05/06 08:56:47;;;;;;;1999.90;999.90;;;16.20;99.90;;;;;;5047392;28;20190;-72
2022/05/06 08:59:13;;;;;;;1999.90;999.90;;;16.10;99.90;;;;;;5047300;28;20196;-72
2022/05/06 09:01:38;;;;;;;1434.22;731.50;;;16.60;99.90;;;;;;5036738;28;20197;-73
2022/05/06 09:04:05;;;;;;;1999.90;999.90;;;17.30;99.90;;;;;;5018860;28;20178;-73
2022/05/06 09:06:32;;;;;;;1999.90;999.90;;;17.90;99.90;;;;;;5047452;28;20198;-71
2022/05/06 09:08:59;;;;;;;1999.90;999.90;;;18.60;99.90;;;;;;5046821;28;20197;-71
2022/05/06 09:14:17;;;;;;;1999.90;999.90;;;19.30;99.90;;;;;;5048564;28;20220;-72
2022/05/06 09:16:46;;;;;;;1999.90;999.90;;;19.60;99.90;;;;;;5051041;28;20190;-69
2022/05/06 09:19:28;;;;;;;1999.90;999.90;;;19.40;99.90;;;;;;5048284;28;20260;-71
2022/05/06 09:22:11;;;;;;;1999.90;999.90;;;19.40;99.90;;;;;;5052197;28;20710;-68
2022/05/06 09:24:38;;;;;;;1999.90;999.90;;;19.40;99.90;;;;;;5032909;28;20282;-72
2022/05/06 09:27:17;;;;;;;1999.90;999.90;;;19.80;99.90;;;;;;5064608;28;20210;-71
2022/05/06 09:29:51;;;;;;;1999.90;999.90;;;19.40;99.90;;;;;;5032599;28;20237;-71
2022/05/06 09:32:25;;;;;;;1999.90;999.90;;;18.90;99.90;;;;;;5046966;28;20186;-75
2022/05/06 09:34:57;;;;;;;1999.90;999.90;;;18.20;99.90;;;;;;5031887;28;20238;-74
2022/05/06 09:37:42;;;;;;;1999.90;999.90;;;18.20;99.90;;;;;;5064441;28;20182;-73
2022/05/06 09:40:08;;;;;;;1999.90;999.90;;;18.00;99.90;;;;;;5032954;28;20183;-73
2022/05/06 09:42:42;;;;;;;1999.90;999.90;;;18.00;99.90;;;;;;5041685;28;20541;-73
2022/05/06 09:45:11;;;;;;;1999.90;999.90;;;17.70;99.90;;;;;;5035669;28;20197;-77
2022/05/06 09:47:37;;;;;;;1999.90;999.90;;;17.80;99.90;;;;;;5035364;28;20201;-76
2022/05/06 09:50:05;;;;;;;1999.90;999.90;;;17.50;99.90;;;;;;5050629;28;21083;-77
2022/05/06 09:52:31;;;;;;;1999.90;999.90;;;17.20;99.90;;;;;;5036411;28;20189;-75
2022/05/06 09:54:58;;;;;;;1999.90;999.90;;;17.00;99.90;;;;;;5024930;28;20674;-75
2022/05/06 09:57:24;;;;;;;1999.90;999.90;;;16.80;99.90;;;;;;5044288;28;20186;-74
2022/05/06 09:59:50;;;;;;;1999.90;999.90;;;16.90;99.90;;;;;;5017485;28;20210;-74
2022/05/06 10:02:17;;;;;;;1612.00;806.88;;;17.10;99.90;;;;;;5035220;28;20515;-76
2022/05/06 10:04:44;;;;;;;1999.90;999.90;;;17.30;99.90;;;;;;5036856;28;20167;-77
2022/05/06 10:07:15;;;;;;;1999.90;999.90;;;17.60;99.90;;;;;;5026584;28;20210;-76
2022/05/06 10:09:56;;;;;;;1999.90;999.90;;;17.70;99.90;;;;;;5047966;28;20205;-75
2022/05/06 10:12:25;;;;;;;933.17;472.90;;;17.70;99.90;;;;;;5048518;28;20653;-74
2022/05/06 10:14:52;;;;;;;1089.88;546.67;;;17.90;99.90;;;;;;5052380;28;20183;-79
2022/05/06 10:17:56;;;;;;;1999.90;999.90;;;18.00;99.90;;;;;;5045928;28;20194;-79
2022/05/06 10:20:37;;;;;;;1999.90;999.90;;;18.20;99.90;;;;;;5036096;28;20631;-78
2022/05/06 10:23:07;;;;;;;1999.90;999.90;;;18.50;99.90;;;;;;5045196;28;20201;-79
2022/05/06 10:25:42;;;;;;;1999.90;999.90;;;18.40;99.90;;;;;;5045284;28;20203;-79
2022/05/06 10:34:10;;;;;;;1999.90;999.90;;;18.30;99.90;;;;;;5035670;28;20654;-79
2022/05/06 10:36:47;;;;;;;1999.90;999.90;;;18.30;99.90;;;;;;5039330;28;20198;-80
2022/05/06 10:39:36;;;;;;;1999.90;999.90;;;18.20;99.90;;;;;;5049787;28;20236;-77
2022/05/06 10:42:03;;;;;;;1999.90;999.90;;;17.90;99.90;;;;;;5073751;28;20220;-78
2022/05/06 10:44:35;;;;;;;1999.90;999.90;;;18.30;99.90;;;;;;5052233;28;20551;-69
2022/05/06 10:47:03;;;;;;;1999.90;999.90;;;18.50;99.90;;;;;;5040720;28;20233;-76
2022/05/06 10:49:37;;;;;;;1999.90;999.90;;;18.40;99.90;;;;;;5051264;28;20174;-73
2022/05/06 10:54:52;;;;;;;1999.90;999.90;;;18.30;99.90;;;;;;5049511;28;20605;-73
2022/05/06 10:57:20;;;;;;;1999.90;999.90;;;18.50;99.90;;;;;;5049346;28;20182;-69
2022/05/06 10:59:53;;;;;;;1999.90;999.90;;;18.60;99.90;;;;;;5055372;28;20643;-75
2022/05/06 11:02:28;;;;;;;1999.90;999.90;;;18.20;99.90;;;;;;5048453;28;20179;-76
2022/05/06 11:05:01;;;;;;;1999.90;999.90;;;18.00;99.90;;;;;;5034140;28;20178;-74
2022/05/06 11:07:28;;;;;;;1999.90;999.90;;;18.20;99.90;;;;;;5055177;28;20201;-74
2022/05/06 11:09:54;;;;;;;1999.90;999.90;;;18.40;99.90;;;;;;5034288;28;20537;-74
2022/05/06 11:12:34;;;;;;;1999.90;999.90;;;18.60;99.90;;;;;;5033525;28;20245;-74
2022/05/06 11:15:03;;;;;;;1999.90;999.90;;;18.70;99.90;;;;;;5050221;28;20182;-73
2022/05/06 11:17:33;;;;;;;1999.90;999.90;;;18.70;99.90;;;;;;5026024;28;20186;-74
2022/05/06 11:20:18;;;;;;;1999.90;999.90;;;18.80;99.90;;;;;;5034127;28;20221;-74
2022/05/06 11:22:55;;;;;;;1999.90;999.90;;;18.90;99.90;;;;;;5048290;28;20184;-74
2022/05/06 11:25:24;;;;;;;1999.90;999.90;;;18.90;99.90;;;;;;5036459;28;20668;-75
2022/05/06 11:27:52;;;;;;;1999.90;999.90;;;19.00;99.90;;;;;;5050341;28;20268;-75
2022/05/06 11:30:19;;;;;;;1999.90;999.90;;;19.20;99.90;;;;;;5049729;28;20178;-75
2022/05/06 11:32:50;;;;;;;1999.90;999.90;;;19.40;99.90;;;;;;5039930;28;20587;-75
2022/05/06 11:35:20;;;;;;;1999.90;999.90;;;19.80;99.90;;;;;;5034399;28;20659;-74
2022/05/06 11:37:47;;;;;;;1999.90;999.90;;;20.00;99.90;;;;;;5049562;28;20643;-74
2022/05/06 11:42:53;;;;;;;1999.90;999.90;;;19.40;99.90;;;;;;5035957;28;20191;-74
2022/05/06 11:48:10;;;;;;;1999.90;999.90;;;19.30;99.90;;;;;;5053446;28;20165;-73
2022/05/06 11:50:37;;;;;;;1999.90;999.90;;;19.20;99.90;;;;;;5035879;28;20206;-74
2022/05/06 11:53:07;;;;;;;1999.90;999.90;;;19.10;99.90;;;;;;5047269;28;20183;-74
2022/05/06 11:55:35;;;;;;;1999.90;999.90;;;19.10;99.90;;;;;;5066164;28;20186;-74
2022/05/06 11:58:00;;;;;;;1999.90;999.90;;;19.20;99.90;;;;;;5034405;28;20543;-74
2022/05/06 12:00:28;;;;;;;1999.90;999.90;;;19.20;99.90;;;;;;5033926;28;20202;-75
2022/05/06 12:03:01;;;;;;;1999.90;999.90;;;19.10;99.90;;;;;;5034110;28;20198;-75
2022/05/06 12:05:26;;;;;;;1999.90;999.90;;;19.10;99.90;;;;;;5033944;28;20210;-74
2022/05/06 12:07:52;;;;;;;1999.90;999.90;;;19.20;99.90;;;;;;5045961;28;20219;-74
2022/05/06 12:10:34;;;;;;;1999.90;999.90;;;19.10;99.90;;;;;;5034712;28;20266;-75
2022/05/06 12:13:07;;;;;;;1999.90;999.90;;;18.90;99.90;;;;;;5035811;28;20167;-74
2022/05/06 12:15:38;;;;;;;1999.90;999.90;;;18.90;99.90;;;;;;5048388;28;20197;-74
2022/05/06 12:18:05;;;;;;;1999.90;999.90;;;18.80;99.90;;;;;;5036164;28;20182;-74
2022/05/06 12:20:33;;;;;;;1999.90;999.90;;;18.80;99.90;;;;;;5053397;28;20627;-75
2022/05/06 12:22:59;;;;;;;1999.90;999.90;;;19.00;99.90;;;;;;5048798;28;20265;-75
2022/05/06 12:25:25;;;;;;;1999.90;999.90;;;19.20;99.90;;;;;;5032291;28;20568;-75
2022/05/06 12:28:23;;;;;;;1999.90;999.90;;;19.60;99.90;;;;;;5051990;28;20728;-75
2022/05/06 12:30:57;;;;;;;1999.90;999.90;;;19.90;99.90;;;;;;5031574;28;20210;-75
2022/05/06 12:33:35;;;;;;;1999.90;999.90;;;19.80;99.90;;;;;;5032479;28;20232;-75
2022/05/06 12:36:04;;;;;;;1999.90;999.90;;;19.90;99.90;;;;;;5033358;28;20248;-75
2022/05/06 12:38:39;;;;;;;1999.90;999.90;;;19.90;99.90;;;;;;5033823;28;20186;-75
2022/05/06 12:41:24;;;;;;;1999.90;999.90;;;20.10;99.90;;;;;;5032097;28;20190;-74
2022/05/06 12:43:52;;;;;;;1999.90;999.90;;;20.20;99.90;;;;;;5033591;28;20182;-76
2022/05/06 12:46:29;;;;;;;1999.90;999.90;;;20.20;99.90;;;;;;5039276;28;20292;-75
2022/05/06 12:51:41;;;;;;;1999.90;999.90;;;20.20;99.90;;;;;;5033274;28;20197;-76
2022/05/06 12:54:09;;;;;;;1999.90;999.90;;;20.30;99.90;;;;;;5051068;28;20662;-75